Station: Carters Bore  

  Atmospheric Gas Attenuation - ITU Rec 676-11   ----------------- dB/100km -----------------
Date Time Temp RH % AH g/m3 Dew Point Wind Direction Speed kph Gust kph Barometer mB Rainfall Since 9am 24GHz 47GHz 76GHz 122GHz 134GHz 241GHz
06/09 23:44 23.5 21 4.44 -0.1 9 9 1013.1 0 10.5 17.8 21.8 56.3 42.3 142.8
06/09 23:40 23.5 21 4.44 -0.1 9 11 1013.1 0 10.5 17.8 21.8 56.3 42.3 142.8
06/09 23:30 23.7 21 4.49 0.1 9 9 1013.1 0 10.6 17.8 21.9 56.6 42.7 144.2
06/09 23:20 23.5 21 4.44 -0.1 9 9 1013.1 0 10.5 17.8 21.8 56.3 42.3 142.8
06/09 23:10 24 20 4.35 -0.3 7 9 1013.1 0 10.3 17.6 21.4 55.3 41.2 138.9
06/09 23:00 24.1 20 4.38 -0.2 7 9 1013.1 0 10.3 17.6 21.4 55.5 41.5 139.7
06/09 22:50 24.2 20 4.4 -0.2 7 7 1013.1 0 10.4 17.6 21.5 55.6 41.6 140.3
06/09 22:40 24.3 20 4.43 -0.1 7 9 1013.1 0 10.4 17.6 21.5 55.7 41.8 141.1
06/09 22:30 24.2 20 4.4 -0.2 7 7 1013.1 0 10.4 17.6 21.5 55.6 41.6 140.3
06/09 22:20 24.3 19 4.2 -0.8 7 7 1013.1 0 10.0 17.3 20.8 53.9 39.6 133.2
06/09 22:10 24.1 19 4.16 -0.9 6 7 1013.1 0 9.9 17.3 20.8 53.7 39.3 132.2
06/09 22:00 24.5 18 4.03 -1.3 6 7 1013.1 0 9.6 17.1 20.3 52.5 37.9 127.1
06/09 21:50 24.9 17 3.89 -1.8 7 7 1013.1 0 9.3 16.8 19.8 51.1 36.4 121.8
06/09 21:40 25.4 17 4 -1.4 7 9 1013.1 0 9.5 16.9 20.0 51.7 37.2 124.8
06/09 21:30 25.9 16 3.87 -1.8 7 9 1013.1 0 9.2 16.7 19.5 50.4 35.7 119.8
06/09 21:20 27.5 15 3.97 -1.4 7 11 1013.1 0 9.4 16.5 19.4 50.2 36.0 120.8
06/09 21:10 28.4 15 4.17 -0.7 9 15 1013.1 0 9.8 16.6 19.8 51.2 37.4 126.1
06/09 21:00 28.5 15 4.19 -0.6 9 15 1013.1 0 9.8 16.6 19.8 51.3 37.6 126.6
06/09 20:50 27.8 15 4.03 -1.2 7 11 1013.1 0 9.5 16.5 19.5 50.5 36.4 122.4
06/09 20:40 28.3 15 4.15 -0.8 9 13 1013.1 0 9.8 16.6 19.8 51.1 37.3 125.5
06/09 20:30 27.9 15 4.06 -1.1 7 13 1013.1 0 9.6 16.5 19.6 50.6 36.7 123.2
06/09 20:20 27.9 14 3.79 -2 6 11 1013.1 0 9.0 16.2 18.9 48.6 34.2 114.4
06/09 20:10 28.6 14 3.93 -1.5 7 11 1013.1 0 9.3 16.3 19.1 49.3 35.2 118.0
06/09 20:00 29.4 14 4.11 -0.9 7 13 1013.1 0 9.6 16.3 19.4 50.1 36.5 122.7
06/09 19:50 29.4 14 4.11 -0.9 7 15 1013.1 0 9.6 16.3 19.4 50.1 36.5 122.7
06/09 19:40 29.4 14 4.11 -0.9 9 15 1013.1 0 9.6 16.3 19.4 50.1 36.5 122.7
06/09 19:30 29.3 13 3.8 -1.9 7 11 1013.1 0 9.0 16.0 18.6 47.9 33.7 112.9
06/09 19:20 29.3 13 3.8 -1.9 7 11 1013.1 0 9.0 16.0 18.6 47.9 33.7 112.9
06/09 19:10 29.9 13 3.92 -1.5 9 11 1013.1 0 9.2 16.0 18.8 48.5 34.5 115.9
06/09 19:00 30.3 13 4.01 -1.2 9 13 1013.1 0 9.4 16.1 18.9 48.9 35.2 118.3
06/09 18:50 30.8 13 4.12 -0.8 9 15 1013.1 0 9.6 16.1 19.1 49.4 36.0 121.0
06/09 18:40 31.3 13 4.23 -0.4 13 22 1013.1 0 9.8 16.2 19.3 49.9 36.7 123.8
06/09 18:30 31.5 13 4.27 -0.2 11 19 1013.1 0 9.9 16.2 19.4 50.1 37.0 124.8
06/09 18:20 31.6 13 4.3 -0.1 7 13 1013.1 0 10.0 16.2 19.4 50.2 37.2 125.6
06/09 18:10 32.3 13 4.46 0.4 9 15 1013.1 0 10.3 16.2 19.7 51.0 38.3 129.6
06/09 18:00 32.9 13 4.61 0.9 9 17 1013.1 0 10.6 16.3 20.0 51.7 39.4 133.4
06/09 17:50 33.1 13 4.65 1 9 17 1013.1 0 10.6 16.3 20.0 51.9 39.7 134.3
06/09 17:40 33.6 13 4.78 1.4 9 15 1013.1 0 10.9 16.4 20.3 52.5 40.6 137.6
06/09 17:30 33.6 13 4.78 1.4 6 13 1013.1 0 10.9 16.4 20.3 52.5 40.6 137.6
06/09 17:20 33.7 13 4.8 1.5 9 15 1013.1 0 10.9 16.4 20.3 52.6 40.7 138.1
06/09 17:10 33.9 14 5.23 2.7 9 13 1013.1 0 11.8 16.8 21.4 55.6 44.4 151.3
06/09 17:00 34.3 14 5.34 3 7 19 1013.1 0 12.0 16.9 21.6 56.1 45.2 154.0
06/09 16:50 34.1 14 5.28 2.8 7 17 1013.1 0 11.9 16.9 21.5 55.8 44.8 152.5
06/09 16:40 34.3 14 5.34 3 11 19 1013.1 0 12.0 16.9 21.6 56.1 45.2 154.0
06/09 16:30 34.3 14 5.34 3 15 26 1013.1 0 12.0 16.9 21.6 56.1 45.2 154.0
06/09 16:20 34.7 15 5.84 4.3 6 11 1013.1 0 13.0 17.4 22.9 59.5 49.5 169.2
06/09 16:10 33.1 15 5.37 3 6 15 1013.1 0 12.1 17.1 22.0 57.1 46.1 157.1
06/09 16:00 33.1 15 5.37 3 9 19 1013.1 0 12.1 17.1 22.0 57.1 46.1 157.1
06/09 15:50 33.5 15 5.48 3.3 11 20 1013.1 0 12.3 17.2 22.2 57.7 46.9 159.9
06/09 15:40 35 15 5.93 4.5 11 19 1013.1 0 13.2 17.4 23.0 60.0 50.2 171.5
06/09 15:30 34.2 16 6.07 4.8 9 15 1013.1 0 13.5 17.7 23.6 61.6 51.9 177.6
06/09 15:20 34.3 16 6.1 4.9 9 19 1013.1 0 13.6 17.7 23.7 61.7 52.1 178.4
06/09 15:10 34.6 17 6.59 6 6 17 1013.1 0 14.5 18.2 25.0 65.2 56.5 193.8
06/09 15:00 34.7 17 6.62 6.1 7 24 1013.1 0 14.6 18.3 25.0 65.3 56.7 194.5
06/09 14:50 33.2 17 6.12 4.9 2 13 1013.1 0 13.6 18.0 24.1 62.7 53.0 181.3
06/09 14:40 35.3 17 6.83 6.6 11 19 1013.1 0 15.0 18.4 25.5 66.5 58.3 200.1
06/09 14:30 34.1 17 6.42 5.6 6 15 1013.1 0 14.2 18.1 24.6 64.3 55.2 189.3
06/09 14:20 34.1 18 6.79 6.4 6 11 1013.1 0 15.0 18.6 25.7 67.1 58.7 201.5
06/09 14:10 34.1 18 6.79 6.4 9 20 1013.1 0 15.0 18.6 25.7 67.1 58.7 201.5
06/09 14:00 34.2 18 6.83 6.5 7 15 1013.1 0 15.0 18.6 25.8 67.3 59.0 202.6
06/09 13:50 34.6 18 6.97 6.8 13 22 1013.1 0 15.3 18.7 26.1 68.1 60.1 206.3
06/09 13:40 33.6 19 6.98 6.8 9 20 1013.1 0 15.4 18.9 26.4 69.0 60.9 209.1
06/09 13:30 33.9 19 7.09 7 9 13 1013.1 0 15.6 19.0 26.6 69.6 61.7 212.1
06/09 13:20 33.3 20 7.24 7.3 9 19 1013.1 0 15.9 19.3 27.3 71.2 63.6 218.7
06/09 13:10 33.5 20 7.31 7.5 7 19 1013.1 0 16.1 19.3 27.4 71.6 64.1 220.6
06/09 13:00 33.3 21 7.6 8 7 13 1013.1 0 16.7 19.7 28.3 74.1 67.1 231.1
06/09 12:50 32.4 21 7.24 7.3 9 22 1013.1 0 15.9 19.4 27.5 72.0 64.3 221.0
06/09 12:40 33.3 22 7.96 8.7 7 13 1013.1 0 17.4 20.1 29.4 77.0 70.7 243.6
06/09 12:30 32.8 22 7.75 8.3 7 15 1013.1 0 17.0 20.0 28.9 75.7 69.0 237.7
06/09 12:20 32.9 23 8.15 9 9 15 1013.1 0 17.8 20.5 30.1 78.9 73.0 251.5
06/09 12:10 33.3 24 8.68 10 6 9 1013.1 0 18.9 21.0 31.6 82.9 78.0 269.1
06/09 12:00 32.1 25 8.49 9.6 7 15 1013.1 0 18.5 21.1 31.5 82.5 77.1 266.1
06/09 11:50 32.8 26 9.16 10.8 7 17 1013.1 0 19.9 21.8 33.3 87.4 83.4 288.2
06/09 11:40 32.5 27 9.36 11.1 6 11 1013.1 0 20.3 22.1 34.1 89.4 85.8 296.6
06/09 11:30 32.2 28 9.56 11.4 9 24 1013.1 0 20.7 22.4 34.8 91.5 88.3 305.1
06/09 11:20 31.6 30 9.92 11.9 7 19 1013.1 0 21.5 23.1 36.3 95.3 92.8 321.0
06/09 11:10 31.3 31 10.08 12.2 6 15 1013.1 0 21.8 23.4 36.9 97.1 94.9 328.3
06/09 11:00 31.2 31 10.03 12.1 7 17 1013.1 0 21.7 23.3 36.8 96.7 94.5 326.8
06/09 10:50 30.8 33 10.45 12.7 9 17 1013.1 0 22.6 24.0 38.4 101.0 99.6 344.7
06/09 10:40 30.5 35 10.91 13.3 11 19 1013.1 0 23.6 24.7 40.1 105.6 105.2 364.2
06/09 10:30 30.2 36 11.04 13.5 9 15 1013.1 0 23.9 25.0 40.7 107.2 107.0 370.7
06/09 10:20 30 38 11.53 14.1 9 17 1013.1 0 24.9 25.7 42.6 112.1 113.0 391.5
06/09 10:10 30 39 11.83 14.5 9 15 1013.1 0 25.5 26.2 43.6 114.9 116.5 403.9
06/09 10:00 29.1 40 11.55 14.1 9 15 1013.1 0 25.0 26.0 43.1 113.5 114.5 396.7
06/09 09:50 28.9 42 12 14.7 11 15 1013.1 0 25.9 26.7 44.8 118.1 120.2 416.5
06/09 09:40 28.4 43 11.95 14.6 13 19 1013.1 0 25.9 26.8 44.9 118.4 120.3 417.0
06/09 09:30 28.1 44 12.03 14.7 11 17 1013.1 0 26.0 27.0 45.4 119.6 121.8 422.0
06/09 09:20 27.7 46 12.31 15 9 13 1013.1 0 26.7 27.6 46.7 123.0 125.8 436.1
06/09 09:10 26.9 47 12.03 14.6 7 13 1013.1 0 26.1 27.4 46.1 121.4 123.6 428.4
06/09 09:00 27.1 48 12.42 15.1 9 15 1013.1 0 26.9 27.9 47.4 125.0 128.2 444.2
06/09 08:50 26.4 49 12.2 14.8 9 17 1013.1 0 26.5 27.8 47.0 123.9 126.5 438.5
06/09 08:40 26.2 51 12.56 15.3 7 17 1013.1 0 27.3 28.4 48.5 127.9 131.4 455.5
06/09 08:30 25.7 52 12.45 15.1 7 15 1013.1 0 27.1 28.4 48.4 127.6 130.8 453.4
06/09 08:20 25.1 52 12.04 14.6 7 13 1013.1 0 26.2 27.9 47.2 124.3 126.6 438.6
06/09 08:10 24.5 53 11.86 14.3 6 9 1013.1 0 25.9 27.9 46.8 123.4 125.3 433.9
06/09 08:00 24.2 53 11.66 14 7 9 1013.1 0 25.5 27.6 46.2 121.8 123.2 426.6
06/09 07:50 23.8 54 11.62 13.9 7 13 1013.1 0 25.4 27.7 46.3 122.0 123.3 427.0
06/09 07:40 23.6 54 11.48 13.8 6 9 1013.1 0 25.2 27.5 45.9 120.8 121.9 421.9
06/09 07:30 22.8 54 10.97 13 4 7 1013.1 0 24.1 27.0 44.4 116.7 116.6 403.4
06/09 07:20 22 54 10.48 12.3 4 7 1013.1 0 23.2 26.5 42.9 112.9 111.6 385.7

Last Refresh: 06-Sep-2026 23:38:39

Bureau of Meteorology